sensor_id;sensor_type;location;lat;lon;timestamp;P1;durP1;ratioP1;P2;durP2;ratioP2
17361;SDS011;8798;51.938;4.348;2023-02-15T00:01:52;36.47;;;16.23;;
17361;SDS011;8798;51.938;4.348;2023-02-15T00:04:20;34.27;;;15.87;;
17361;SDS011;8798;51.938;4.348;2023-02-15T00:06:49;32.27;;;15.73;;
17361;SDS011;8798;51.938;4.348;2023-02-15T00:09:17;37.97;;;15.70;;
17361;SDS011;8798;51.938;4.348;2023-02-15T00:11:45;31.53;;;15.67;;
17361;SDS011;8798;51.938;4.348;2023-02-15T00:14:19;33.30;;;16.00;;
17361;SDS011;8798;51.938;4.348;2023-02-15T00:16:49;31.87;;;15.80;;
17361;SDS011;8798;51.938;4.348;2023-02-15T00:19:19;30.43;;;16.27;;
17361;SDS011;8798;51.938;4.348;2023-02-15T00:21:48;36.43;;;16.97;;
17361;SDS011;8798;51.938;4.348;2023-02-15T00:24:17;36.40;;;16.07;;
17361;SDS011;8798;51.938;4.348;2023-02-15T00:26:46;34.57;;;17.40;;
17361;SDS011;8798;51.938;4.348;2023-02-15T00:29:16;32.83;;;16.27;;
17361;SDS011;8798;51.938;4.348;2023-02-15T00:31:46;33.43;;;16.60;;
17361;SDS011;8798;51.938;4.348;2023-02-15T00:34:15;35.60;;;16.90;;
17361;SDS011;8798;51.938;4.348;2023-02-15T00:36:44;30.57;;;15.53;;
17361;SDS011;8798;51.938;4.348;2023-02-15T00:39:13;33.07;;;16.70;;
17361;SDS011;8798;51.938;4.348;2023-02-15T00:41:41;32.03;;;15.87;;
17361;SDS011;8798;51.938;4.348;2023-02-15T00:44:09;31.40;;;16.00;;
17361;SDS011;8798;51.938;4.348;2023-02-15T00:46:37;36.17;;;16.80;;
17361;SDS011;8798;51.938;4.348;2023-02-15T00:49:06;34.23;;;16.43;;
17361;SDS011;8798;51.938;4.348;2023-02-15T00:51:34;31.53;;;16.00;;
17361;SDS011;8798;51.938;4.348;2023-02-15T00:54:02;34.63;;;16.50;;
17361;SDS011;8798;51.938;4.348;2023-02-15T00:56:30;31.83;;;15.83;;
17361;SDS011;8798;51.938;4.348;2023-02-15T00:58:58;32.93;;;15.80;;
17361;SDS011;8798;51.938;4.348;2023-02-15T01:01:26;33.20;;;16.30;;
17361;SDS011;8798;51.938;4.348;2023-02-15T01:03:54;37.50;;;16.20;;
17361;SDS011;8798;51.938;4.348;2023-02-15T01:06:23;31.33;;;15.53;;
17361;SDS011;8798;51.938;4.348;2023-02-15T01:08:51;35.20;;;15.93;;
17361;SDS011;8798;51.938;4.348;2023-02-15T01:11:19;37.17;;;16.73;;
17361;SDS011;8798;51.938;4.348;2023-02-15T01:13:49;35.33;;;15.80;;
17361;SDS011;8798;51.938;4.348;2023-02-15T01:16:18;36.00;;;16.37;;
17361;SDS011;8798;51.938;4.348;2023-02-15T01:18:46;33.40;;;16.20;;
17361;SDS011;8798;51.938;4.348;2023-02-15T01:21:14;35.07;;;16.77;;
17361;SDS011;8798;51.938;4.348;2023-02-15T01:23:45;31.50;;;15.47;;
17361;SDS011;8798;51.938;4.348;2023-02-15T01:26:14;33.93;;;16.23;;
17361;SDS011;8798;51.938;4.348;2023-02-15T01:28:42;33.53;;;15.97;;
17361;SDS011;8798;51.938;4.348;2023-02-15T01:31:11;34.13;;;15.73;;
17361;SDS011;8798;51.938;4.348;2023-02-15T01:33:40;36.33;;;16.97;;
17361;SDS011;8798;51.938;4.348;2023-02-15T01:36:09;32.80;;;15.93;;
17361;SDS011;8798;51.938;4.348;2023-02-15T01:38:36;32.80;;;16.40;;
17361;SDS011;8798;51.938;4.348;2023-02-15T01:41:07;32.27;;;15.93;;
17361;SDS011;8798;51.938;4.348;2023-02-15T01:43:50;31.20;;;15.50;;
17361;SDS011;8798;51.938;4.348;2023-02-15T01:46:22;35.33;;;16.53;;
17361;SDS011;8798;51.938;4.348;2023-02-15T01:48:54;31.03;;;14.97;;
17361;SDS011;8798;51.938;4.348;2023-02-15T01:51:26;35.83;;;16.17;;
17361;SDS011;8798;51.938;4.348;2023-02-15T01:53:59;32.67;;;15.70;;
17361;SDS011;8798;51.938;4.348;2023-02-15T01:56:34;30.17;;;14.90;;
17361;SDS011;8798;51.938;4.348;2023-02-15T01:59:06;27.57;;;14.43;;
17361;SDS011;8798;51.938;4.348;2023-02-15T02:01:36;28.47;;;14.97;;
17361;SDS011;8798;51.938;4.348;2023-02-15T02:04:07;29.83;;;14.63;;
17361;SDS011;8798;51.938;4.348;2023-02-15T02:06:40;29.40;;;13.83;;
17361;SDS011;8798;51.938;4.348;2023-02-15T02:09:08;29.00;;;14.63;;
17361;SDS011;8798;51.938;4.348;2023-02-15T02:11:38;34.70;;;15.07;;
17361;SDS011;8798;51.938;4.348;2023-02-15T02:14:06;32.90;;;15.07;;
17361;SDS011;8798;51.938;4.348;2023-02-15T02:16:37;29.93;;;14.67;;
17361;SDS011;8798;51.938;4.348;2023-02-15T02:19:25;32.27;;;14.83;;
17361;SDS011;8798;51.938;4.348;2023-02-15T02:22:23;31.47;;;14.20;;
17361;SDS011;8798;51.938;4.348;2023-02-15T02:25:31;30.10;;;14.07;;
17361;SDS011;8798;51.938;4.348;2023-02-15T02:28:25;31.00;;;13.87;;
17361;SDS011;8798;51.938;4.348;2023-02-15T02:31:22;28.03;;;13.80;;
17361;SDS011;8798;51.938;4.348;2023-02-15T02:34:09;27.20;;;13.43;;
17361;SDS011;8798;51.938;4.348;2023-02-15T02:36:42;27.43;;;13.83;;
17361;SDS011;8798;51.938;4.348;2023-02-15T02:39:20;30.87;;;14.10;;
17361;SDS011;8798;51.938;4.348;2023-02-15T02:41:57;25.90;;;13.53;;
17361;SDS011;8798;51.938;4.348;2023-02-15T02:44:31;27.10;;;13.30;;
17361;SDS011;8798;51.938;4.348;2023-02-15T02:47:09;26.23;;;13.40;;
17361;SDS011;8798;51.938;4.348;2023-02-15T02:49:44;28.83;;;12.73;;
17361;SDS011;8798;51.938;4.348;2023-02-15T02:55:04;28.83;;;13.50;;
17361;SDS011;8798;51.938;4.348;2023-02-15T02:57:35;24.27;;;12.90;;
17361;SDS011;8798;51.938;4.348;2023-02-15T03:00:07;25.40;;;12.37;;
17361;SDS011;8798;51.938;4.348;2023-02-15T03:02:37;24.77;;;11.80;;
17361;SDS011;8798;51.938;4.348;2023-02-15T03:05:11;28.87;;;13.27;;
17361;SDS011;8798;51.938;4.348;2023-02-15T03:07:43;23.10;;;12.07;;
17361;SDS011;8798;51.938;4.348;2023-02-15T03:10:16;27.23;;;12.97;;
17361;SDS011;8798;51.938;4.348;2023-02-15T03:12:48;22.17;;;12.27;;
17361;SDS011;8798;51.938;4.348;2023-02-15T03:15:17;24.80;;;12.63;;
17361;SDS011;8798;51.938;4.348;2023-02-15T03:17:48;26.13;;;12.87;;
17361;SDS011;8798;51.938;4.348;2023-02-15T03:20:23;23.27;;;11.70;;
17361;SDS011;8798;51.938;4.348;2023-02-15T03:22:54;25.80;;;12.00;;
17361;SDS011;8798;51.938;4.348;2023-02-15T03:25:24;23.90;;;12.17;;
17361;SDS011;8798;51.938;4.348;2023-02-15T03:27:58;21.57;;;11.93;;
17361;SDS011;8798;51.938;4.348;2023-02-15T03:30:29;23.27;;;11.77;;
17361;SDS011;8798;51.938;4.348;2023-02-15T03:32:59;20.63;;;11.00;;
17361;SDS011;8798;51.938;4.348;2023-02-15T03:35:31;22.23;;;11.70;;
17361;SDS011;8798;51.938;4.348;2023-02-15T03:38:03;23.37;;;11.57;;
17361;SDS011;8798;51.938;4.348;2023-02-15T03:40:34;22.80;;;11.50;;
17361;SDS011;8798;51.938;4.348;2023-02-15T03:43:23;22.90;;;11.77;;
17361;SDS011;8798;51.938;4.348;2023-02-15T03:45:59;23.53;;;11.87;;
17361;SDS011;8798;51.938;4.348;2023-02-15T03:48:34;23.90;;;12.10;;
17361;SDS011;8798;51.938;4.348;2023-02-15T03:51:08;23.43;;;11.60;;
17361;SDS011;8798;51.938;4.348;2023-02-15T03:53:57;22.60;;;12.10;;
17361;SDS011;8798;51.938;4.348;2023-02-15T03:56:26;21.80;;;12.30;;
17361;SDS011;8798;51.938;4.348;2023-02-15T03:58:54;25.03;;;12.73;;
17361;SDS011;8798;51.938;4.348;2023-02-15T04:01:39;23.93;;;12.00;;
17361;SDS011;8798;51.938;4.348;2023-02-15T04:04:25;24.00;;;11.73;;
17361;SDS011;8798;51.938;4.348;2023-02-15T04:06:59;22.37;;;11.97;;
17361;SDS011;8798;51.938;4.348;2023-02-15T04:09:28;20.63;;;11.83;;
17361;SDS011;8798;51.938;4.348;2023-02-15T04:12:13;21.27;;;11.23;;
17361;SDS011;8798;51.938;4.348;2023-02-15T04:14:41;27.03;;;12.37;;
17361;SDS011;8798;51.938;4.348;2023-02-15T04:17:26;20.77;;;10.67;;
17361;SDS011;8798;51.938;4.348;2023-02-15T04:19:54;20.60;;;11.57;;
17361;SDS011;8798;51.938;4.348;2023-02-15T04:22:41;23.23;;;12.10;;
17361;SDS011;8798;51.938;4.348;2023-02-15T04:25:27;22.30;;;11.50;;
17361;SDS011;8798;51.938;4.348;2023-02-15T04:27:55;24.57;;;11.73;;
17361;SDS011;8798;51.938;4.348;2023-02-15T04:30:24;23.43;;;12.00;;
17361;SDS011;8798;51.938;4.348;2023-02-15T04:32:53;25.00;;;12.40;;
17361;SDS011;8798;51.938;4.348;2023-02-15T04:35:22;23.30;;;12.60;;
17361;SDS011;8798;51.938;4.348;2023-02-15T04:37:51;22.83;;;12.50;;
17361;SDS011;8798;51.938;4.348;2023-02-15T04:40:19;23.43;;;11.37;;
17361;SDS011;8798;51.938;4.348;2023-02-15T04:42:47;23.30;;;12.03;;
17361;SDS011;8798;51.938;4.348;2023-02-15T04:45:15;23.40;;;12.37;;
17361;SDS011;8798;51.938;4.348;2023-02-15T04:47:44;26.90;;;12.60;;
17361;SDS011;8798;51.938;4.348;2023-02-15T04:50:12;23.63;;;12.30;;
17361;SDS011;8798;51.938;4.348;2023-02-15T04:52:40;24.63;;;12.60;;
17361;SDS011;8798;51.938;4.348;2023-02-15T04:55:09;24.50;;;12.70;;
17361;SDS011;8798;51.938;4.348;2023-02-15T04:57:37;26.50;;;13.40;;
17361;SDS011;8798;51.938;4.348;2023-02-15T05:00:05;24.90;;;13.10;;
17361;SDS011;8798;51.938;4.348;2023-02-15T05:02:35;26.57;;;13.13;;
17361;SDS011;8798;51.938;4.348;2023-02-15T05:05:03;31.77;;;14.43;;
17361;SDS011;8798;51.938;4.348;2023-02-15T05:07:31;33.37;;;14.17;;
17361;SDS011;8798;51.938;4.348;2023-02-15T05:09:59;29.37;;;14.37;;
17361;SDS011;8798;51.938;4.348;2023-02-15T05:12:28;31.93;;;14.73;;
17361;SDS011;8798;51.938;4.348;2023-02-15T05:14:56;33.07;;;16.17;;
17361;SDS011;8798;51.938;4.348;2023-02-15T05:17:23;35.80;;;16.23;;
17361;SDS011;8798;51.938;4.348;2023-02-15T05:19:51;36.23;;;16.97;;
17361;SDS011;8798;51.938;4.348;2023-02-15T05:22:19;38.17;;;17.03;;
17361;SDS011;8798;51.938;4.348;2023-02-15T05:24:47;35.00;;;16.00;;
17361;SDS011;8798;51.938;4.348;2023-02-15T05:27:36;33.37;;;15.07;;
17361;SDS011;8798;51.938;4.348;2023-02-15T05:30:21;30.77;;;15.73;;
17361;SDS011;8798;51.938;4.348;2023-02-15T05:32:49;40.53;;;17.20;;
17361;SDS011;8798;51.938;4.348;2023-02-15T05:35:17;31.07;;;15.40;;
17361;SDS011;8798;51.938;4.348;2023-02-15T05:37:46;36.37;;;16.23;;
17361;SDS011;8798;51.938;4.348;2023-02-15T05:40:14;40.93;;;17.27;;
17361;SDS011;8798;51.938;4.348;2023-02-15T05:42:43;36.53;;;16.37;;
17361;SDS011;8798;51.938;4.348;2023-02-15T05:45:11;40.20;;;17.90;;
17361;SDS011;8798;51.938;4.348;2023-02-15T05:47:39;39.27;;;16.73;;
17361;SDS011;8798;51.938;4.348;2023-02-15T05:50:07;35.00;;;16.30;;
17361;SDS011;8798;51.938;4.348;2023-02-15T05:52:36;31.97;;;15.53;;
17361;SDS011;8798;51.938;4.348;2023-02-15T05:55:04;39.33;;;16.47;;
17361;SDS011;8798;51.938;4.348;2023-02-15T05:57:34;35.80;;;17.40;;
17361;SDS011;8798;51.938;4.348;2023-02-15T06:00:04;34.73;;;16.10;;
17361;SDS011;8798;51.938;4.348;2023-02-15T06:02:33;40.57;;;17.07;;
17361;SDS011;8798;51.938;4.348;2023-02-15T06:05:02;38.50;;;17.20;;
17361;SDS011;8798;51.938;4.348;2023-02-15T06:07:30;37.40;;;16.83;;
17361;SDS011;8798;51.938;4.348;2023-02-15T06:09:58;42.27;;;16.63;;
17361;SDS011;8798;51.938;4.348;2023-02-15T06:12:26;38.47;;;17.47;;
17361;SDS011;8798;51.938;4.348;2023-02-15T06:14:53;36.13;;;16.77;;
17361;SDS011;8798;51.938;4.348;2023-02-15T06:17:23;37.77;;;16.83;;
17361;SDS011;8798;51.938;4.348;2023-02-15T06:19:50;35.20;;;16.10;;
17361;SDS011;8798;51.938;4.348;2023-02-15T06:22:18;34.17;;;15.83;;
17361;SDS011;8798;51.938;4.348;2023-02-15T06:24:46;34.13;;;15.90;;
17361;SDS011;8798;51.938;4.348;2023-02-15T06:27:14;32.10;;;15.73;;
17361;SDS011;8798;51.938;4.348;2023-02-15T06:29:42;37.47;;;16.57;;
17361;SDS011;8798;51.938;4.348;2023-02-15T06:32:09;39.77;;;17.17;;
17361;SDS011;8798;51.938;4.348;2023-02-15T06:34:39;41.30;;;17.47;;
17361;SDS011;8798;51.938;4.348;2023-02-15T06:37:07;35.73;;;17.10;;
17361;SDS011;8798;51.938;4.348;2023-02-15T06:39:35;40.60;;;17.27;;
17361;SDS011;8798;51.938;4.348;2023-02-15T06:42:03;39.83;;;17.47;;
17361;SDS011;8798;51.938;4.348;2023-02-15T06:44:31;36.97;;;16.83;;
17361;SDS011;8798;51.938;4.348;2023-02-15T06:46:59;37.33;;;17.03;;
17361;SDS011;8798;51.938;4.348;2023-02-15T06:49:26;38.73;;;17.70;;
17361;SDS011;8798;51.938;4.348;2023-02-15T06:51:56;37.00;;;16.50;;
17361;SDS011;8798;51.938;4.348;2023-02-15T06:54:23;33.53;;;16.97;;
17361;SDS011;8798;51.938;4.348;2023-02-15T06:56:51;39.60;;;17.20;;
17361;SDS011;8798;51.938;4.348;2023-02-15T06:59:19;35.03;;;16.87;;
17361;SDS011;8798;51.938;4.348;2023-02-15T07:01:47;36.67;;;16.90;;
17361;SDS011;8798;51.938;4.348;2023-02-15T07:04:15;33.87;;;16.20;;
17361;SDS011;8798;51.938;4.348;2023-02-15T07:06:43;36.57;;;16.43;;
17361;SDS011;8798;51.938;4.348;2023-02-15T07:09:13;37.57;;;16.47;;
17361;SDS011;8798;51.938;4.348;2023-02-15T07:11:41;34.43;;;16.33;;
17361;SDS011;8798;51.938;4.348;2023-02-15T07:14:26;30.70;;;15.70;;
17361;SDS011;8798;51.938;4.348;2023-02-15T07:16:54;34.17;;;16.27;;
17361;SDS011;8798;51.938;4.348;2023-02-15T07:19:22;35.17;;;16.90;;
17361;SDS011;8798;51.938;4.348;2023-02-15T07:21:50;39.20;;;17.27;;
17361;SDS011;8798;51.938;4.348;2023-02-15T07:24:19;38.13;;;17.13;;
17361;SDS011;8798;51.938;4.348;2023-02-15T07:26:47;34.43;;;16.37;;
17361;SDS011;8798;51.938;4.348;2023-02-15T07:29:15;32.93;;;17.40;;
17361;SDS011;8798;51.938;4.348;2023-02-15T07:31:43;37.77;;;16.97;;
17361;SDS011;8798;51.938;4.348;2023-02-15T07:34:11;38.63;;;17.37;;
17361;SDS011;8798;51.938;4.348;2023-02-15T07:36:39;38.03;;;17.47;;
17361;SDS011;8798;51.938;4.348;2023-02-15T07:39:07;38.53;;;17.70;;
17361;SDS011;8798;51.938;4.348;2023-02-15T07:41:36;38.27;;;18.13;;
17361;SDS011;8798;51.938;4.348;2023-02-15T07:44:04;42.10;;;18.13;;
17361;SDS011;8798;51.938;4.348;2023-02-15T07:46:32;37.60;;;18.47;;
17361;SDS011;8798;51.938;4.348;2023-02-15T07:49:00;43.53;;;19.13;;
17361;SDS011;8798;51.938;4.348;2023-02-15T07:51:27;40.70;;;18.03;;
17361;SDS011;8798;51.938;4.348;2023-02-15T07:53:55;39.60;;;17.80;;
17361;SDS011;8798;51.938;4.348;2023-02-15T07:56:23;40.27;;;18.70;;
17361;SDS011;8798;51.938;4.348;2023-02-15T07:58:53;40.63;;;17.63;;
17361;SDS011;8798;51.938;4.348;2023-02-15T08:01:23;39.33;;;17.50;;
17361;SDS011;8798;51.938;4.348;2023-02-15T08:03:51;48.80;;;19.00;;
17361;SDS011;8798;51.938;4.348;2023-02-15T08:06:20;41.00;;;19.20;;
17361;SDS011;8798;51.938;4.348;2023-02-15T08:08:49;39.63;;;18.50;;
17361;SDS011;8798;51.938;4.348;2023-02-15T08:11:17;47.63;;;19.30;;
17361;SDS011;8798;51.938;4.348;2023-02-15T08:13:58;39.17;;;17.67;;
17361;SDS011;8798;51.938;4.348;2023-02-15T08:16:29;42.47;;;18.00;;
17361;SDS011;8798;51.938;4.348;2023-02-15T08:19:00;43.73;;;18.90;;
17361;SDS011;8798;51.938;4.348;2023-02-15T08:21:29;37.80;;;18.10;;
17361;SDS011;8798;51.938;4.348;2023-02-15T08:23:58;41.90;;;18.80;;
17361;SDS011;8798;51.938;4.348;2023-02-15T08:26:27;39.83;;;18.87;;
17361;SDS011;8798;51.938;4.348;2023-02-15T08:28:57;39.27;;;18.23;;
17361;SDS011;8798;51.938;4.348;2023-02-15T08:31:25;43.87;;;19.63;;
17361;SDS011;8798;51.938;4.348;2023-02-15T08:33:55;46.73;;;20.33;;
17361;SDS011;8798;51.938;4.348;2023-02-15T08:36:24;42.77;;;20.20;;
17361;SDS011;8798;51.938;4.348;2023-02-15T08:38:54;50.60;;;20.53;;
17361;SDS011;8798;51.938;4.348;2023-02-15T08:41:24;49.93;;;18.97;;
17361;SDS011;8798;51.938;4.348;2023-02-15T08:43:54;49.33;;;19.80;;
17361;SDS011;8798;51.938;4.348;2023-02-15T08:46:25;44.63;;;19.60;;
17361;SDS011;8798;51.938;4.348;2023-02-15T08:48:56;46.40;;;19.53;;
17361;SDS011;8798;51.938;4.348;2023-02-15T08:51:25;42.77;;;18.97;;
17361;SDS011;8798;51.938;4.348;2023-02-15T08:53:55;56.97;;;23.00;;
17361;SDS011;8798;51.938;4.348;2023-02-15T08:56:26;57.13;;;24.00;;
17361;SDS011;8798;51.938;4.348;2023-02-15T08:58:56;52.80;;;20.97;;
17361;SDS011;8798;51.938;4.348;2023-02-15T09:01:26;53.03;;;22.10;;
17361;SDS011;8798;51.938;4.348;2023-02-15T09:03:56;76.20;;;27.43;;
17361;SDS011;8798;51.938;4.348;2023-02-15T09:06:25;60.17;;;23.20;;
17361;SDS011;8798;51.938;4.348;2023-02-15T09:08:54;58.50;;;22.27;;
17361;SDS011;8798;51.938;4.348;2023-02-15T09:11:22;52.63;;;22.63;;
17361;SDS011;8798;51.938;4.348;2023-02-15T09:13:52;45.70;;;22.07;;
17361;SDS011;8798;51.938;4.348;2023-02-15T09:16:22;46.63;;;21.93;;
17361;SDS011;8798;51.938;4.348;2023-02-15T09:18:53;47.50;;;20.77;;
17361;SDS011;8798;51.938;4.348;2023-02-15T09:21:24;44.77;;;20.17;;
17361;SDS011;8798;51.938;4.348;2023-02-15T09:23:55;45.80;;;20.87;;
17361;SDS011;8798;51.938;4.348;2023-02-15T09:26:26;42.73;;;19.63;;
17361;SDS011;8798;51.938;4.348;2023-02-15T09:28:56;45.37;;;19.77;;
17361;SDS011;8798;51.938;4.348;2023-02-15T09:31:27;46.33;;;20.40;;
17361;SDS011;8798;51.938;4.348;2023-02-15T09:33:58;45.63;;;18.73;;
17361;SDS011;8798;51.938;4.348;2023-02-15T09:36:28;43.17;;;20.30;;
17361;SDS011;8798;51.938;4.348;2023-02-15T09:38:59;43.47;;;19.83;;
17361;SDS011;8798;51.938;4.348;2023-02-15T09:41:36;42.37;;;19.53;;
17361;SDS011;8798;51.938;4.348;2023-02-15T09:44:16;41.97;;;17.97;;
17361;SDS011;8798;51.938;4.348;2023-02-15T09:47:02;41.13;;;19.37;;
17361;SDS011;8798;51.938;4.348;2023-02-15T09:49:48;39.00;;;19.50;;
17361;SDS011;8798;51.938;4.348;2023-02-15T09:52:39;42.63;;;20.30;;
17361;SDS011;8798;51.938;4.348;2023-02-15T09:58:14;41.97;;;19.93;;
17361;SDS011;8798;51.938;4.348;2023-02-15T10:00:50;47.83;;;19.53;;
17361;SDS011;8798;51.938;4.348;2023-02-15T10:03:32;43.67;;;19.70;;
17361;SDS011;8798;51.938;4.348;2023-02-15T10:06:26;46.30;;;20.37;;
17361;SDS011;8798;51.938;4.348;2023-02-15T10:09:02;44.00;;;19.33;;
17361;SDS011;8798;51.938;4.348;2023-02-15T10:11:41;45.63;;;20.00;;
17361;SDS011;8798;51.938;4.348;2023-02-15T10:14:35;52.53;;;21.00;;
17361;SDS011;8798;51.938;4.348;2023-02-15T10:17:16;43.97;;;19.50;;
17361;SDS011;8798;51.938;4.348;2023-02-15T10:19:53;45.70;;;20.30;;
17361;SDS011;8798;51.938;4.348;2023-02-15T10:22:36;42.50;;;19.13;;
17361;SDS011;8798;51.938;4.348;2023-02-15T10:25:16;50.07;;;20.50;;
17361;SDS011;8798;51.938;4.348;2023-02-15T10:27:57;41.80;;;20.37;;
17361;SDS011;8798;51.938;4.348;2023-02-15T10:30:32;43.57;;;19.17;;
17361;SDS011;8798;51.938;4.348;2023-02-15T10:33:09;42.47;;;20.17;;
17361;SDS011;8798;51.938;4.348;2023-02-15T10:35:49;42.93;;;19.20;;
17361;SDS011;8798;51.938;4.348;2023-02-15T10:38:29;44.63;;;19.60;;
17361;SDS011;8798;51.938;4.348;2023-02-15T10:41:09;40.87;;;19.17;;
17361;SDS011;8798;51.938;4.348;2023-02-15T10:43:55;39.87;;;18.20;;
17361;SDS011;8798;51.938;4.348;2023-02-15T10:49:37;43.77;;;19.43;;
17361;SDS011;8798;51.938;4.348;2023-02-15T10:52:18;46.13;;;19.67;;
17361;SDS011;8798;51.938;4.348;2023-02-15T10:55:00;40.17;;;18.83;;
17361;SDS011;8798;51.938;4.348;2023-02-15T10:57:38;43.47;;;19.03;;
17361;SDS011;8798;51.938;4.348;2023-02-15T11:00:12;44.67;;;18.83;;
17361;SDS011;8798;51.938;4.348;2023-02-15T11:02:50;43.03;;;19.17;;
17361;SDS011;8798;51.938;4.348;2023-02-15T11:05:33;41.30;;;19.57;;
17361;SDS011;8798;51.938;4.348;2023-02-15T11:08:08;41.43;;;19.03;;
17361;SDS011;8798;51.938;4.348;2023-02-15T11:10:41;44.47;;;18.90;;
17361;SDS011;8798;51.938;4.348;2023-02-15T11:13:14;41.53;;;19.03;;
17361;SDS011;8798;51.938;4.348;2023-02-15T11:15:44;43.57;;;19.83;;
17361;SDS011;8798;51.938;4.348;2023-02-15T11:18:19;39.03;;;18.47;;
17361;SDS011;8798;51.938;4.348;2023-02-15T11:20:54;46.40;;;20.07;;
17361;SDS011;8798;51.938;4.348;2023-02-15T11:23:25;41.93;;;18.77;;
17361;SDS011;8798;51.938;4.348;2023-02-15T11:25:57;39.13;;;18.13;;
17361;SDS011;8798;51.938;4.348;2023-02-15T11:28:30;38.80;;;18.80;;
17361;SDS011;8798;51.938;4.348;2023-02-15T11:31:02;43.57;;;18.87;;
17361;SDS011;8798;51.938;4.348;2023-02-15T11:33:40;41.77;;;18.50;;
17361;SDS011;8798;51.938;4.348;2023-02-15T11:36:14;38.57;;;17.93;;
17361;SDS011;8798;51.938;4.348;2023-02-15T11:38:46;38.47;;;19.23;;
17361;SDS011;8798;51.938;4.348;2023-02-15T11:41:21;43.43;;;18.80;;
17361;SDS011;8798;51.938;4.348;2023-02-15T11:43:53;42.03;;;18.87;;
17361;SDS011;8798;51.938;4.348;2023-02-15T11:46:25;37.40;;;17.80;;
17361;SDS011;8798;51.938;4.348;2023-02-15T11:48:53;41.87;;;19.17;;
17361;SDS011;8798;51.938;4.348;2023-02-15T11:51:21;42.47;;;18.23;;
17361;SDS011;8798;51.938;4.348;2023-02-15T11:53:50;39.47;;;18.53;;
17361;SDS011;8798;51.938;4.348;2023-02-15T11:56:19;43.27;;;19.17;;
17361;SDS011;8798;51.938;4.348;2023-02-15T11:58:51;53.13;;;18.67;;
17361;SDS011;8798;51.938;4.348;2023-02-15T12:01:24;40.73;;;18.23;;
17361;SDS011;8798;51.938;4.348;2023-02-15T12:03:58;46.30;;;18.73;;
17361;SDS011;8798;51.938;4.348;2023-02-15T12:06:32;40.13;;;19.27;;
17361;SDS011;8798;51.938;4.348;2023-02-15T12:09:05;40.60;;;19.03;;
17361;SDS011;8798;51.938;4.348;2023-02-15T12:11:42;38.13;;;18.50;;
17361;SDS011;8798;51.938;4.348;2023-02-15T12:14:11;42.60;;;18.97;;
17361;SDS011;8798;51.938;4.348;2023-02-15T12:16:42;40.53;;;19.13;;
17361;SDS011;8798;51.938;4.348;2023-02-15T12:19:24;40.10;;;17.93;;
17361;SDS011;8798;51.938;4.348;2023-02-15T12:21:59;39.20;;;17.73;;
17361;SDS011;8798;51.938;4.348;2023-02-15T12:24:30;36.53;;;17.63;;
17361;SDS011;8798;51.938;4.348;2023-02-15T12:27:03;36.37;;;18.13;;
17361;SDS011;8798;51.938;4.348;2023-02-15T12:29:35;44.97;;;20.00;;
17361;SDS011;8798;51.938;4.348;2023-02-15T12:32:08;36.50;;;17.63;;
17361;SDS011;8798;51.938;4.348;2023-02-15T12:34:44;38.20;;;18.23;;
17361;SDS011;8798;51.938;4.348;2023-02-15T12:37:17;40.03;;;19.23;;
17361;SDS011;8798;51.938;4.348;2023-02-15T12:39:52;41.90;;;19.43;;
17361;SDS011;8798;51.938;4.348;2023-02-15T12:42:23;39.90;;;18.73;;
17361;SDS011;8798;51.938;4.348;2023-02-15T12:44:53;39.20;;;19.10;;
17361;SDS011;8798;51.938;4.348;2023-02-15T12:47:22;38.00;;;18.83;;
17361;SDS011;8798;51.938;4.348;2023-02-15T12:53:02;42.73;;;18.27;;
17361;SDS011;8798;51.938;4.348;2023-02-15T12:55:34;39.50;;;18.67;;
17361;SDS011;8798;51.938;4.348;2023-02-15T12:58:12;41.77;;;19.47;;
17361;SDS011;8798;51.938;4.348;2023-02-15T13:00:44;42.47;;;19.37;;
17361;SDS011;8798;51.938;4.348;2023-02-15T13:03:16;47.87;;;20.37;;
17361;SDS011;8798;51.938;4.348;2023-02-15T13:05:46;37.87;;;17.90;;
17361;SDS011;8798;51.938;4.348;2023-02-15T13:08:18;41.97;;;18.63;;
17361;SDS011;8798;51.938;4.348;2023-02-15T13:10:54;41.00;;;19.10;;
17361;SDS011;8798;51.938;4.348;2023-02-15T13:13:27;44.20;;;19.33;;
17361;SDS011;8798;51.938;4.348;2023-02-15T13:15:58;38.17;;;18.90;;
17361;SDS011;8798;51.938;4.348;2023-02-15T13:18:29;41.10;;;19.03;;
17361;SDS011;8798;51.938;4.348;2023-02-15T13:21:00;40.83;;;20.50;;
17361;SDS011;8798;51.938;4.348;2023-02-15T13:23:37;47.70;;;19.43;;
17361;SDS011;8798;51.938;4.348;2023-02-15T13:26:09;38.13;;;18.07;;
17361;SDS011;8798;51.938;4.348;2023-02-15T13:28:44;40.00;;;19.37;;
17361;SDS011;8798;51.938;4.348;2023-02-15T13:31:15;42.17;;;19.20;;
17361;SDS011;8798;51.938;4.348;2023-02-15T13:33:46;40.80;;;20.23;;
17361;SDS011;8798;51.938;4.348;2023-02-15T13:36:20;47.47;;;21.00;;
17361;SDS011;8798;51.938;4.348;2023-02-15T13:38:57;46.33;;;20.70;;
17361;SDS011;8798;51.938;4.348;2023-02-15T13:41:37;46.03;;;20.77;;
17361;SDS011;8798;51.938;4.348;2023-02-15T13:44:18;44.43;;;20.17;;
17361;SDS011;8798;51.938;4.348;2023-02-15T13:46:55;40.97;;;19.43;;
17361;SDS011;8798;51.938;4.348;2023-02-15T13:49:37;44.03;;;20.20;;
17361;SDS011;8798;51.938;4.348;2023-02-15T13:52:18;42.13;;;18.93;;
17361;SDS011;8798;51.938;4.348;2023-02-15T13:54:51;41.03;;;19.10;;
17361;SDS011;8798;51.938;4.348;2023-02-15T13:57:32;35.93;;;17.50;;
17361;SDS011;8798;51.938;4.348;2023-02-15T14:00:15;42.33;;;19.40;;
17361;SDS011;8798;51.938;4.348;2023-02-15T14:02:59;34.67;;;17.60;;
17361;SDS011;8798;51.938;4.348;2023-02-15T14:08:56;42.13;;;18.47;;
17361;SDS011;8798;51.938;4.348;2023-02-15T14:11:38;33.83;;;17.63;;
17361;SDS011;8798;51.938;4.348;2023-02-15T14:14:15;40.17;;;18.77;;
17361;SDS011;8798;51.938;4.348;2023-02-15T14:17:01;40.07;;;18.53;;
17361;SDS011;8798;51.938;4.348;2023-02-15T14:19:37;43.57;;;17.20;;
17361;SDS011;8798;51.938;4.348;2023-02-15T14:22:14;44.97;;;20.03;;
17361;SDS011;8798;51.938;4.348;2023-02-15T14:24:53;40.00;;;18.67;;
17361;SDS011;8798;51.938;4.348;2023-02-15T14:27:34;37.43;;;17.63;;
17361;SDS011;8798;51.938;4.348;2023-02-15T14:30:13;41.63;;;18.90;;
17361;SDS011;8798;51.938;4.348;2023-02-15T14:32:47;43.73;;;17.63;;
17361;SDS011;8798;51.938;4.348;2023-02-15T14:35:19;35.93;;;18.10;;
17361;SDS011;8798;51.938;4.348;2023-02-15T14:37:50;38.27;;;17.73;;
17361;SDS011;8798;51.938;4.348;2023-02-15T14:40:27;38.47;;;18.17;;
17361;SDS011;8798;51.938;4.348;2023-02-15T14:43:22;41.03;;;19.37;;
17361;SDS011;8798;51.938;4.348;2023-02-15T14:46:00;38.37;;;19.67;;
17361;SDS011;8798;51.938;4.348;2023-02-15T14:48:36;35.97;;;18.13;;
17361;SDS011;8798;51.938;4.348;2023-02-15T14:51:07;39.27;;;18.70;;
17361;SDS011;8798;51.938;4.348;2023-02-15T14:53:36;42.93;;;19.30;;
17361;SDS011;8798;51.938;4.348;2023-02-15T14:56:06;37.77;;;18.00;;
17361;SDS011;8798;51.938;4.348;2023-02-15T14:58:58;42.80;;;19.17;;
17361;SDS011;8798;51.938;4.348;2023-02-15T15:01:36;40.67;;;18.40;;
17361;SDS011;8798;51.938;4.348;2023-02-15T15:04:07;39.13;;;18.47;;
17361;SDS011;8798;51.938;4.348;2023-02-15T15:06:40;35.57;;;17.97;;
17361;SDS011;8798;51.938;4.348;2023-02-15T15:09:10;37.93;;;18.60;;
17361;SDS011;8798;51.938;4.348;2023-02-15T15:11:46;37.33;;;17.90;;
17361;SDS011;8798;51.938;4.348;2023-02-15T15:17:06;42.87;;;19.03;;
17361;SDS011;8798;51.938;4.348;2023-02-15T15:22:40;41.23;;;18.67;;
17361;SDS011;8798;51.938;4.348;2023-02-15T15:25:09;42.33;;;18.10;;
17361;SDS011;8798;51.938;4.348;2023-02-15T15:27:55;41.07;;;17.83;;